Hoegh Transporter — LAKO7 — position and weather

sailwx.info

Track history (hours):
 
Tides and Currents Weather Stations Pressure Air Temp Water Temp Dewpoint Dewpoint Depression Visibility Wind Speed Wind Dir Waves Ship Positions

Hoegh Transporter

Last reported at 2018-Apr-20 01:20 UTC. Time now 2018-Apr-25 05:00 UTC.
Position N 31°23' E 032°23'.

Length 199 m; draft 8.8 m.

Type: Cargo ship. MMSI: 257712000.

Date/timePositionNaut miles runAvg speedWind from/ knotsBaromVisibWave heightAir tempDewpointWater temp
2018-Apr-20 01:20N 31°23' E 032°23'2 6.6
2018-Apr-20 00:59N 31°24' E 032°20'0 0.0
2018-Apr-19 18:07N 31°24' E 032°20'0 0.0
2018-Apr-19 17:43N 31°24' E 032°20'0 0.4
2018-Apr-19 17:30N 31°24' E 032°19'2 4.3
2018-Apr-19 17:00N 31°26' E 032°21'5 7.5
2018-Apr-19 16:23N 31°30' E 032°21'3 7.9
2018-Apr-19 16:00N 31°33' E 032°21'5 7.3
2018-Apr-19 15:22N 31°37' E 032°24'410.4
2018-Apr-19 15:00N 31°39' E 032°28'510.5
2018-Apr-19 14:30N 31°42' E 032°33'6 9.5
2018-Apr-19 13:55N 31°47' E 032°36'410.7
2018-Apr-19 13:30N 31°51' E 032°38'610.6
2018-Apr-19 12:55N 31°56' E 032°42'610.5
2018-Apr-19 12:19N 32°01' E 032°46'310.3
2018-Apr-19 12:00N 32°04' E 032°48'510.1
2018-Apr-19 11:30N 32°09' E 032°51'510.1
2018-Apr-19 11:00N 32°13' E 032°54'610.0
2018-Apr-19 10:26N 32°18' E 032°57'4 9.9
2018-Apr-19 10:00N 32°22' E 032°59'510.1
2018-Apr-19 09:30N 32°26' E 033°02'510.1
2018-Apr-19 09:00N 32°31' E 033°05'510.2
2018-Apr-19 08:30N 32°35' E 033°08'510.4
2018-Apr-19 08:00N 32°40' E 033°11'510.6
2018-Apr-19 07:30N 32°44' E 033°14'611.6
2018-Apr-19 07:01N 32°49' E 033°17'2243.0
2018-Apr-19 06:30N 32°32' E 033°01'3365.3
2018-Apr-19 06:00N 32°59' E 033°25'811.2
2018-Apr-19 05:20N 33°03' E 033°32'915.4
2018-Apr-19 04:44N 33°12' E 033°33'833.9
2018-Apr-19 04:30N 33°08' E 033°41'611.2
2018-Apr-19 04:00N 33°11' E 033°47'611.2
2018-Apr-19 03:30N 33°15' E 033°52'710.9
2018-Apr-19 02:53N 33°18' E 033°59'410.8
2018-Apr-19 02:30N 33°21' E 034°03'711.0
2018-Apr-19 01:51N 33°24' E 034°10'411.2
2018-Apr-19 01:30N 33°27' E 034°14'611.2
2018-Apr-19 01:00N 33°30' E 034°20'611.1
2018-Apr-19 00:28N 33°33' E 034°26'1411.2
2018-Apr-18 23:15N 33°40' E 034°40'311.2
2018-Apr-18 22:56N 33°42' E 034°43'511.4
2018-Apr-18 22:31N 33°45' E 034°48'3668.3
2018-Apr-18 21:58N 33°08' E 034°51'4470.9
2018-Apr-18 21:22N 33°51' E 035°02'411.4
2018-Apr-18 21:00N 33°53' E 035°06'911.4
2018-Apr-18 20:16N 33°57' E 035°15'311.1
2018-Apr-18 19:59N 33°56' E 035°19'8 0.7
2018-Apr-18 08:20N 33°56' E 035°09'515.0
2018-Apr-18 08:00N 33°56' E 035°03'915.0
2018-Apr-18 07:22N 33°56' E 034°52'616.5
2018-Apr-18 07:00N 33°57' E 034°44'916.5
2018-Apr-18 06:28N 33°57' E 034°34'715.7
2018-Apr-18 06:00N 33°57' E 034°25'915.6
2018-Apr-18 05:27N 33°58' E 034°15'1416.0
2018-Apr-18 04:34N 33°58' E 033°58'416.0
2018-Apr-18 04:19N 33°58' E 033°53'515.4
2018-Apr-18 04:00N 33°58' E 033°47'2515.2
2018-Apr-18 02:22N 33°54' E 033°17'617.0
2018-Apr-18 02:00N 33°57' E 033°11'815.6
2018-Apr-18 01:29N 33°56' E 033°01'917.6
2018-Apr-18 01:00N 34°05' E 033°02'918.6
2018-Apr-18 00:30N 33°56' E 033°01'2542.3
2018-Apr-17 23:55N 33°56' E 032°31'916.1
2018-Apr-17 23:22N 33°56' E 032°20'1816.3
2018-Apr-17 22:15N 33°56' E 031°58'516.4
2018-Apr-17 21:58N 33°56' E 031°53'1016.2
2018-Apr-17 21:20N 33°56' E 031°40'516.1
2018-Apr-17 21:00N 33°56' E 031°34'1816.2
2018-Apr-17 19:53N 33°56' E 031°12'1516.2
2018-Apr-17 18:55N 33°56' E 030°53'716.3
2018-Apr-17 18:30N 33°56' E 030°45'1716.3
2018-Apr-17 17:29N 33°57' E 030°25'816.2
2018-Apr-17 17:00N 33°57' E 030°16'816.2
2018-Apr-17 16:30N 33°56' E 030°06'816.0
2018-Apr-17 16:00N 33°57' E 029°56'816.0
2018-Apr-17 15:30N 33°57' E 029°46'815.8
2018-Apr-17 15:00N 33°57' E 029°37'815.8
2018-Apr-17 14:30N 33°57' E 029°27'74016.3
2018-Apr-15 16:57N 35°21' E 014°33'1019.9
2018-Apr-15 16:28N 35°22' E 014°21'613.8
2018-Apr-15 16:00N 35°23' E 014°14'1018.4
2018-Apr-15 15:29N 35°29' E 014°04'1018.3
2018-Apr-15 14:56N 35°36' E 013°55'1019.6
2018-Apr-15 14:25N 35°43' E 013°46'510.8
2018-Apr-15 14:00N 35°46' E 013°42'1018.1
2018-Apr-15 13:27N 35°53' E 013°33'817.1
2018-Apr-15 13:00N 35°58' E 013°26'  
2018-Apr-13 06:03N 35°60' W 005°13'120.1
2018-Apr-13 06:00N 35°60' W 005°14'1020.2
2018-Apr-13 05:30N 35°57' W 005°26'  
Track history (hours):
 
Tides and Currents Weather Stations Pressure Air Temp Water Temp Dewpoint Dewpoint Depression Visibility Wind Speed Wind Dir Waves Ship Positions

Hoegh Transporter

Last reported at 2018-Apr-20 01:20 UTC. Time now 2018-Apr-25 05:00 UTC.
Position N 31°23' E 032°23'.

Length 199 m; draft 8.8 m.

Type: Cargo ship. MMSI: 257712000.

Date/timePositionNaut miles runAvg speedWind from/ knotsBaromVisibWave heightAir tempDewpointWater temp
2018-Apr-20 01:20N 31°23' E 032°23'2 6.6
2018-Apr-20 00:59N 31°24' E 032°20'0 0.0
2018-Apr-19 18:07N 31°24' E 032°20'0 0.0
2018-Apr-19 17:43N 31°24' E 032°20'0 0.4
2018-Apr-19 17:30N 31°24' E 032°19'2 4.3
2018-Apr-19 17:00N 31°26' E 032°21'5 7.5
2018-Apr-19 16:23N 31°30' E 032°21'3 7.9
2018-Apr-19 16:00N 31°33' E 032°21'5 7.3
2018-Apr-19 15:22N 31°37' E 032°24'410.4
2018-Apr-19 15:00N 31°39' E 032°28'510.5
2018-Apr-19 14:30N 31°42' E 032°33'6 9.5
2018-Apr-19 13:55N 31°47' E 032°36'410.7
2018-Apr-19 13:30N 31°51' E 032°38'610.6
2018-Apr-19 12:55N 31°56' E 032°42'610.5
2018-Apr-19 12:19N 32°01' E 032°46'310.3
2018-Apr-19 12:00N 32°04' E 032°48'510.1
2018-Apr-19 11:30N 32°09' E 032°51'510.1
2018-Apr-19 11:00N 32°13' E 032°54'610.0
2018-Apr-19 10:26N 32°18' E 032°57'4 9.9
2018-Apr-19 10:00N 32°22' E 032°59'510.1
2018-Apr-19 09:30N 32°26' E 033°02'510.1
2018-Apr-19 09:00N 32°31' E 033°05'510.2
2018-Apr-19 08:30N 32°35' E 033°08'510.4
2018-Apr-19 08:00N 32°40' E 033°11'510.6
2018-Apr-19 07:30N 32°44' E 033°14'611.6
2018-Apr-19 07:01N 32°49' E 033°17'2243.0
2018-Apr-19 06:30N 32°32' E 033°01'3365.3
2018-Apr-19 06:00N 32°59' E 033°25'811.2
2018-Apr-19 05:20N 33°03' E 033°32'915.4
2018-Apr-19 04:44N 33°12' E 033°33'833.9
2018-Apr-19 04:30N 33°08' E 033°41'611.2
2018-Apr-19 04:00N 33°11' E 033°47'611.2
2018-Apr-19 03:30N 33°15' E 033°52'710.9
2018-Apr-19 02:53N 33°18' E 033°59'410.8
2018-Apr-19 02:30N 33°21' E 034°03'711.0
2018-Apr-19 01:51N 33°24' E 034°10'411.2
2018-Apr-19 01:30N 33°27' E 034°14'611.2
2018-Apr-19 01:00N 33°30' E 034°20'611.1
2018-Apr-19 00:28N 33°33' E 034°26'1411.2
2018-Apr-18 23:15N 33°40' E 034°40'311.2
2018-Apr-18 22:56N 33°42' E 034°43'511.4
2018-Apr-18 22:31N 33°45' E 034°48'3668.3
2018-Apr-18 21:58N 33°08' E 034°51'4470.9
2018-Apr-18 21:22N 33°51' E 035°02'411.4
2018-Apr-18 21:00N 33°53' E 035°06'911.4
2018-Apr-18 20:16N 33°57' E 035°15'311.1
2018-Apr-18 19:59N 33°56' E 035°19'8 0.7
2018-Apr-18 08:20N 33°56' E 035°09'515.0
2018-Apr-18 08:00N 33°56' E 035°03'915.0
2018-Apr-18 07:22N 33°56' E 034°52'616.5
2018-Apr-18 07:00N 33°57' E 034°44'916.5
2018-Apr-18 06:28N 33°57' E 034°34'715.7
2018-Apr-18 06:00N 33°57' E 034°25'915.6
2018-Apr-18 05:27N 33°58' E 034°15'1416.0
2018-Apr-18 04:34N 33°58' E 033°58'416.0
2018-Apr-18 04:19N 33°58' E 033°53'515.4
2018-Apr-18 04:00N 33°58' E 033°47'2515.2
2018-Apr-18 02:22N 33°54' E 033°17'617.0
2018-Apr-18 02:00N 33°57' E 033°11'815.6
2018-Apr-18 01:29N 33°56' E 033°01'917.6
2018-Apr-18 01:00N 34°05' E 033°02'918.6
2018-Apr-18 00:30N 33°56' E 033°01'2542.3
2018-Apr-17 23:55N 33°56' E 032°31'916.1
2018-Apr-17 23:22N 33°56' E 032°20'1816.3
2018-Apr-17 22:15N 33°56' E 031°58'516.4
2018-Apr-17 21:58N 33°56' E 031°53'1016.2
2018-Apr-17 21:20N 33°56' E 031°40'516.1
2018-Apr-17 21:00N 33°56' E 031°34'1816.2
2018-Apr-17 19:53N 33°56' E 031°12'1516.2
2018-Apr-17 18:55N 33°56' E 030°53'716.3
2018-Apr-17 18:30N 33°56' E 030°45'1716.3
2018-Apr-17 17:29N 33°57' E 030°25'816.2
2018-Apr-17 17:00N 33°57' E 030°16'816.2
2018-Apr-17 16:30N 33°56' E 030°06'816.0
2018-Apr-17 16:00N 33°57' E 029°56'816.0
2018-Apr-17 15:30N 33°57' E 029°46'815.8
2018-Apr-17 15:00N 33°57' E 029°37'815.8
2018-Apr-17 14:30N 33°57' E 029°27'74016.3
2018-Apr-15 16:57N 35°21' E 014°33'1019.9
2018-Apr-15 16:28N 35°22' E 014°21'613.8
2018-Apr-15 16:00N 35°23' E 014°14'1018.4
2018-Apr-15 15:29N 35°29' E 014°04'1018.3
2018-Apr-15 14:56N 35°36' E 013°55'1019.6
2018-Apr-15 14:25N 35°43' E 013°46'510.8
2018-Apr-15 14:00N 35°46' E 013°42'1018.1
2018-Apr-15 13:27N 35°53' E 013°33'817.1
2018-Apr-15 13:00N 35°58' E 013°26'  
2018-Apr-13 06:03N 35°60' W 005°13'120.1
2018-Apr-13 06:00N 35°60' W 005°14'1020.2
2018-Apr-13 05:30N 35°57' W 005°26'  

Dump ship's entire track history